Time;durP1;ratioP1;P1;durP2;ratioP2;P2;SDS_P1;SDS_P2;PMS_P1;PMS_P2;Temp;Humidity;BMP_temperature;BMP_pressure;BME280_temperature;BME280_humidity;BME280_pressure;Samples;Min_cycle;Max_cycle;Signal;HPM_P1;HPM_P2
2023/11/30 18:36:05;;;;;;;;;8.00;6.50;;;;;20.22;40.80;99839.13;5482731;23;46750;-78
2023/11/30 18:38:30;;;;;;;;;7.75;7.75;;;;;20.23;40.44;99848.69;4974911;28;45230;-78
2023/11/30 18:40:55;;;;;;;;;8.00;7.25;;;;;20.18;40.69;99845.81;4977910;28;45630;-75
2023/11/30 18:43:20;;;;;;;;;9.75;8.75;;;;;20.22;41.04;99854.97;4978293;28;46079;-75
2023/11/30 18:45:46;;;;;;;;;8.75;7.25;;;;;20.12;40.85;99836.81;4977315;28;62899;-75
2023/11/30 18:48:11;;;;;;;;;9.75;7.25;;;;;20.09;40.81;99837.16;4978682;28;45345;-76
2023/11/30 18:50:36;;;;;;;;;8.25;8.25;;;;;20.21;40.98;99857.81;4978793;28;45407;-76
2023/11/30 18:53:02;;;;;;;;;7.00;7.00;;;;;20.21;40.74;99871.03;4978305;28;46324;-75
2023/11/30 18:55:27;;;;;;;;;8.00;7.00;;;;;20.22;40.67;99870.03;4977782;28;45388;-75
2023/11/30 18:57:52;;;;;;;;;12.50;9.75;;;;;20.21;40.70;99874.50;4978635;28;45323;-75
2023/11/30 19:00:18;;;;;;;;;9.00;7.00;;;;;20.15;41.09;99869.97;4978659;28;45465;-75
2023/11/30 19:02:43;;;;;;;;;10.25;9.00;;;;;20.18;40.90;99875.69;4972747;28;47168;-75
2023/11/30 19:05:09;;;;;;;;;6.25;6.25;;;;;19.85;40.82;99832.13;4958711;28;45452;-77
2023/11/30 19:07:35;;;;;;;;;11.75;9.00;;;;;20.14;40.99;99887.63;4957487;28;45387;-83
2023/11/30 19:10:01;;;;;;;;;8.50;8.50;;;;;20.07;41.13;99874.34;4973328;28;45475;-83
2023/11/30 19:12:27;;;;;;;;;13.75;8.00;;;;;20.08;42.33;99883.09;4974094;28;45488;-83
2023/11/30 19:14:52;;;;;;;;;9.50;7.75;;;;;19.80;42.20;99844.28;4974397;28;45356;-83
2023/11/30 19:17:18;;;;;;;;;9.25;9.25;;;;;20.09;42.73;99886.56;4972670;28;45429;-84
2023/11/30 19:19:43;;;;;;;;;7.67;7.33;;;;;20.10;42.67;99894.28;4970207;28;45433;-71
2023/11/30 19:22:09;;;;;;;;;8.00;8.00;;;;;20.09;42.54;99900.56;4970034;28;45447;-72
2023/11/30 19:24:34;;;;;;;;;11.00;7.33;;;;;20.09;42.93;99897.91;4971956;28;45440;-71
2023/11/30 19:26:59;;;;;;;;;7.75;7.50;;;;;20.10;43.03;99899.56;4977366;28;45254;-71
2023/11/30 19:29:25;;;;;;;;;11.50;9.50;;;;;20.00;43.35;99888.50;4969792;28;45483;-71
2023/11/30 19:31:50;;;;;;;;;13.25;11.00;;;;;20.09;43.19;99895.28;4976076;28;46150;-69
2023/11/30 19:34:16;;;;;;;;;9.75;7.75;;;;;20.10;43.50;99896.91;4975953;28;45504;-69
2023/11/30 19:36:41;;;;;;;;;12.75;9.50;;;;;20.11;43.96;99901.19;4968320;28;45442;-71
2023/11/30 19:39:07;;;;;;;;;14.25;11.00;;;;;20.12;44.09;99905.50;4977214;28;45360;-72
2023/11/30 19:41:33;;;;;;;;;15.25;12.75;;;;;20.13;44.90;99901.84;4975966;28;46520;-79
2023/11/30 19:43:58;;;;;;;;;21.75;16.75;;;;;20.12;45.18;99900.22;4972779;28;45286;-71
2023/11/30 19:46:25;;;;;;;;;23.25;17.00;;;;;20.09;45.46;99890.00;4973081;28;45752;-70
2023/11/30 19:48:51;;;;;;;;;23.50;21.00;;;;;20.13;45.50;99899.22;4970265;28;45496;-81
2023/11/30 19:51:17;;;;;;;;;25.00;20.25;;;;;20.11;46.28;99884.53;4966221;28;46160;-75
2023/11/30 19:53:44;;;;;;;;;31.75;24.50;;;;;20.22;46.70;99904.38;4976158;28;45451;-80
2023/11/30 19:56:14;;;;;;;;;37.75;25.75;;;;;20.21;47.23;99906.19;4971131;28;45447;-76
2023/11/30 19:58:43;;;;;;;;;35.75;25.50;;;;;20.26;47.31;99914.34;4975637;28;45305;-80
2023/11/30 20:01:11;;;;;;;;;35.75;28.00;;;;;20.26;47.77;99902.97;4976890;28;46195;-79
2023/11/30 20:03:37;;;;;;;;;49.00;35.75;;;;;20.27;48.52;99904.59;4975226;28;45408;-70
2023/11/30 20:06:03;;;;;;;;;48.75;31.50;;;;;20.30;48.55;99906.84;4970461;28;45448;-76
2023/11/30 20:08:28;;;;;;;;;55.50;37.50;;;;;20.24;49.38;99894.41;4972944;28;45482;-77
2023/11/30 20:10:54;;;;;;;;;49.25;37.75;;;;;20.20;49.43;99885.22;4970535;28;45457;-77
2023/11/30 20:13:19;;;;;;;;;58.00;41.75;;;;;20.27;49.50;99908.03;4975431;28;45376;-76
2023/11/30 20:15:45;;;;;;;;;50.50;34.75;;;;;20.30;49.34;99904.19;4965624;28;45489;-76
2023/11/30 20:18:10;;;;;;;;;56.25;37.50;;;;;20.40;49.83;99927.66;4972283;28;45393;-81
2023/11/30 20:20:36;;;;;;;;;52.50;34.50;;;;;20.37;49.86;99920.13;4974345;28;45332;-83
2023/11/30 20:23:04;;;;;;;;;49.50;33.75;;;;;20.35;51.07;99915.00;4976955;28;45327;-80
2023/11/30 20:25:29;;;;;;;;;51.00;37.00;;;;;20.49;51.49;99937.06;4977190;28;45493;-84
2023/11/30 20:27:55;;;;;;;;;52.25;33.75;;;;;20.53;52.10;99942.00;4977761;28;45436;-85
2023/11/30 20:30:20;;;;;;;;;44.50;33.75;;;;;20.43;52.17;99931.75;4977748;28;45511;-83
2023/11/30 20:32:45;;;;;;;;;49.00;36.00;;;;;20.46;52.54;99936.63;4976425;28;45556;-87
2023/11/30 20:35:11;;;;;;;;;44.25;31.50;;;;;20.47;52.47;99930.34;4968918;28;45600;-82
2023/11/30 20:37:36;;;;;;;;;51.50;31.75;;;;;20.60;53.00;99953.41;4971385;28;45484;-82
2023/11/30 20:40:02;;;;;;;;;48.25;32.25;;;;;20.62;53.27;99959.31;4967443;28;47017;-86
2023/11/30 20:42:28;;;;;;;;;44.50;35.00;;;;;20.61;52.65;99958.50;4976698;28;45477;-83
2023/11/30 20:44:53;;;;;;;;;43.50;31.75;;;;;20.54;52.99;99946.25;4977219;28;45287;-83
2023/11/30 20:47:23;;;;;;;;;46.00;34.25;;;;;20.60;52.93;99962.16;4976644;28;45512;-82
2023/11/30 20:49:49;;;;;;;;;44.00;30.75;;;;;20.65;52.49;99963.41;4969538;28;46309;-83
2023/11/30 20:52:15;;;;;;;;;44.50;32.25;;;;;20.62;52.51;99961.97;4976344;28;45318;-83
2023/11/30 20:54:40;;;;;;;;;46.75;32.25;;;;;20.63;51.57;99951.19;4974426;28;45417;-82
2023/11/30 20:57:07;;;;;;;;;43.50;30.25;;;;;20.55;51.66;99950.53;4973759;28;45423;-82
2023/11/30 20:59:33;;;;;;;;;40.75;30.00;;;;;20.38;51.54;99919.91;4976128;28;46999;-72
2023/11/30 21:01:58;;;;;;;;;39.75;28.25;;;;;20.45;51.34;99927.91;4967170;28;45503;-73
2023/11/30 21:04:24;;;;;;;;;37.75;30.25;;;;;20.61;51.16;99952.38;4974807;28;48019;-74
2023/11/30 21:06:49;;;;;;;;;44.75;31.25;;;;;20.61;50.94;99963.78;4973172;28;45512;-74
2023/11/30 21:09:14;;;;;;;;;33.00;24.75;;;;;20.55;51.28;99953.19;4967134;28;55437;-78
2023/11/30 21:11:40;;;;;;;;;36.50;30.00;;;;;20.57;51.47;99948.50;4965341;28;45382;-88
2023/11/30 21:14:05;;;;;;;;;41.50;25.75;;;;;20.55;51.00;99954.00;4974677;28;50242;-78
2023/11/30 21:16:30;;;;;;;;;29.50;23.50;;;;;20.60;51.16;99971.91;4973723;28;45408;-78
2023/11/30 21:18:55;;;;;;;;;43.50;30.00;;;;;20.56;51.09;99962.72;4974588;28;46994;-77
2023/11/30 21:21:21;;;;;;;;;31.25;26.00;;;;;20.51;50.96;99963.31;4975754;28;45447;-75
2023/11/30 21:23:46;;;;;;;;;36.25;26.25;;;;;20.57;50.58;99970.47;4976195;28;45299;-77
2023/11/30 21:26:11;;;;;;;;;39.00;25.25;;;;;20.58;50.91;99974.72;4972541;28;45478;-75
2023/11/30 21:28:38;;;;;;;;;37.50;25.75;;;;;20.48;50.72;99959.22;4971737;28;48124;-75
2023/11/30 21:31:03;;;;;;;;;37.50;29.50;;;;;20.55;50.70;99966.38;4970799;28;45327;-73
2023/11/30 21:33:28;;;;;;;;;34.00;23.75;;;;;20.55;50.69;99971.69;4974833;28;45820;-74
2023/11/30 21:35:54;;;;;;;;;21.75;19.25;;;;;20.47;50.48;99956.78;4970968;28;45348;-76
2023/11/30 21:38:19;;;;;;;;;30.50;24.25;;;;;20.59;50.47;99973.75;4973424;28;45963;-73
2023/11/30 21:40:45;;;;;;;;;28.00;23.25;;;;;20.56;50.65;99974.13;4975667;28;45269;-76
2023/11/30 21:43:11;;;;;;;;;28.50;21.75;;;;;20.62;50.58;99981.28;4975980;28;45426;-75
2023/11/30 21:45:36;;;;;;;;;29.25;21.50;;;;;20.50;50.43;99967.78;4975313;28;45427;-76
2023/11/30 21:48:01;;;;;;;;;33.25;24.00;;;;;20.55;50.11;99975.13;4975621;28;45526;-75
2023/11/30 21:50:27;;;;;;;;;32.75;21.25;;;;;20.63;50.29;99996.13;4975468;28;45500;-75
2023/11/30 21:52:53;;;;;;;;;26.75;22.50;;;;;20.63;50.14;99993.47;4975883;28;45333;-73
2023/11/30 21:55:18;;;;;;;;;31.25;23.50;;;;;20.62;50.32;100002.44;4975397;28;45420;-74
2023/11/30 21:57:47;;;;;;;;;27.75;21.00;;;;;20.62;50.09;99998.97;4976128;28;46228;-73
2023/11/30 22:00:14;;;;;;;;;28.50;22.25;;;;;20.45;49.62;99975.47;4977877;28;45369;-76
2023/11/30 22:02:43;;;;;;;;;29.00;23.00;;;;;20.62;50.00;100004.25;4978237;28;45456;-72
2023/11/30 22:05:09;;;;;;;;;26.00;21.75;;;;;20.54;50.15;99991.16;4975922;28;45576;-73
2023/11/30 22:07:34;;;;;;;;;28.50;22.00;;;;;20.58;49.87;99998.53;4978689;28;46616;-75
2023/11/30 22:10:01;;;;;;;;;20.25;17.25;;;;;20.57;49.97;99996.91;4978614;28;45473;-75
2023/11/30 22:12:26;;;;;;;;;22.50;19.75;;;;;20.61;49.63;100007.91;4978994;28;45399;-73
2023/11/30 22:14:52;;;;;;;;;33.75;19.25;;;;;20.51;49.54;99993.19;4978169;28;45459;-73
2023/11/30 22:17:17;;;;;;;;;29.50;20.25;;;;;20.61;49.73;100005.25;4976335;28;52595;-73
2023/11/30 22:19:42;;;;;;;;;26.00;18.25;;;;;20.36;49.66;99972.13;4978469;28;45282;-73
2023/11/30 22:22:08;;;;;;;;;29.75;21.50;;;;;20.57;49.64;99999.53;4978834;28;45439;-75
2023/11/30 22:24:34;;;;;;;;;23.25;20.25;;;;;20.61;49.47;100000.78;4975416;28;45357;-73
2023/11/30 22:26:59;;;;;;;;;27.25;19.75;;;;;20.51;49.35;99979.16;4978335;28;58596;-73
2023/11/30 22:29:25;;;;;;;;;20.25;18.50;;;;;20.60;49.40;99996.53;4978120;28;45472;-73
2023/11/30 22:31:54;;;;;;;;;27.25;21.75;;;;;20.57;49.63;99996.09;4978477;28;45516;-73
2023/11/30 22:34:19;;;;;;;;;24.25;18.25;;;;;20.57;49.21;99998.72;4978224;28;45476;-73
2023/11/30 22:36:44;;;;;;;;;18.25;14.00;;;;;20.61;49.62;100013.19;4977515;28;54177;-75
2023/11/30 22:39:10;;;;;;;;;22.25;17.00;;;;;20.59;49.19;100012.56;4968093;28;46732;-75
2023/11/30 22:41:36;;;;;;;;;25.00;18.25;;;;;20.61;49.49;100010.53;4978609;28;45286;-76
2023/11/30 22:44:01;;;;;;;;;25.25;20.25;;;;;20.62;49.49;100005.06;4977721;28;45384;-73
2023/11/30 22:46:26;;;;;;;;;22.75;19.00;;;;;20.62;49.25;100013.00;4973394;28;46292;-71
2023/11/30 22:48:52;;;;;;;;;20.00;16.25;;;;;20.55;49.41;99998.09;4976891;28;45495;-81
2023/11/30 22:51:17;;;;;;;;;19.25;17.25;;;;;20.47;47.31;99993.78;4978472;28;45241;-77
